createdAt,value
2017-09-08T00:01:44.377Z,6.97
2017-09-08T00:04:12.719Z,6.40
2017-09-08T00:06:41.218Z,6.23
2017-09-08T00:09:08.763Z,6.70
2017-09-08T00:11:36.333Z,7.20
2017-09-08T00:14:03.870Z,7.70
2017-09-08T00:16:31.393Z,6.63
2017-09-08T00:18:58.954Z,6.83
2017-09-08T00:21:26.491Z,6.50
2017-09-08T00:23:54.046Z,7.60
2017-09-08T00:26:21.575Z,6.77
2017-09-08T00:28:49.111Z,7.07
2017-09-08T00:31:16.653Z,6.90
2017-09-08T00:33:44.221Z,6.53
2017-09-08T00:36:12.668Z,6.50
2017-09-08T00:38:41.117Z,6.83
2017-09-08T00:41:08.660Z,7.00
2017-09-08T00:43:36.589Z,6.03
2017-09-08T00:46:04.145Z,5.57
2017-09-08T00:48:31.676Z,6.17
2017-09-08T00:50:59.208Z,6.50
2017-09-08T00:53:26.748Z,6.47
2017-09-08T00:55:54.779Z,6.53
2017-09-08T00:58:22.324Z,5.80
2017-09-08T01:00:49.872Z,6.47
2017-09-08T01:03:17.403Z,6.30
2017-09-08T01:05:44.969Z,6.40
2017-09-08T01:08:12.894Z,6.17
2017-09-08T01:10:40.926Z,5.70
2017-09-08T01:13:08.464Z,5.30
2017-09-08T01:15:35.990Z,5.97
2017-09-08T01:18:03.542Z,6.97
2017-09-08T01:20:31.068Z,6.30
2017-09-08T01:22:58.604Z,6.17
2017-09-08T01:25:26.146Z,5.87
2017-09-08T01:27:53.703Z,6.37
2017-09-08T01:30:21.234Z,7.30
2017-09-08T01:32:48.794Z,6.03
2017-09-08T01:35:16.332Z,6.00
2017-09-08T01:37:43.851Z,5.27
2017-09-08T01:40:12.772Z,6.23
2017-09-08T01:42:41.455Z,6.40
2017-09-08T01:45:09.018Z,5.80
2017-09-08T01:47:36.539Z,6.57
2017-09-08T01:50:04.119Z,5.93
2017-09-08T01:52:31.655Z,5.80
2017-09-08T01:54:59.200Z,6.67
2017-09-08T01:57:26.711Z,6.50
2017-09-08T01:59:54.259Z,5.00
2017-09-08T02:02:21.834Z,5.83
2017-09-08T02:04:49.359Z,6.77
2017-09-08T02:07:17.304Z,5.53
2017-09-08T02:09:44.853Z,5.90
2017-09-08T02:12:12.417Z,6.07
2017-09-08T02:14:40.445Z,6.07
2017-09-08T02:17:08.003Z,6.57
2017-09-08T02:19:35.527Z,6.30
2017-09-08T02:22:08.813Z,5.40
2017-09-08T02:24:36.339Z,6.47
2017-09-08T02:27:03.899Z,5.90
2017-09-08T02:29:31.420Z,6.30
2017-09-08T02:31:58.959Z,6.87
2017-09-08T02:34:26.521Z,6.07
2017-09-08T02:36:54.036Z,5.63
2017-09-08T02:39:21.604Z,5.90
2017-09-08T02:41:49.124Z,6.17
2017-09-08T02:44:16.674Z,5.87
2017-09-08T02:46:44.213Z,7.07
2017-09-08T02:49:12.869Z,5.57
2017-09-08T02:51:40.969Z,5.70
2017-09-08T02:54:08.540Z,5.00
2017-09-08T02:56:36.482Z,5.60
2017-09-08T02:59:04.009Z,5.97
2017-09-08T03:01:31.574Z,5.43
2017-09-08T03:03:59.106Z,5.47
2017-09-08T03:06:26.653Z,6.20
2017-09-08T03:08:54.208Z,5.50
2017-09-08T03:11:21.758Z,6.00
2017-09-08T03:13:49.681Z,5.70
2017-09-08T03:16:17.255Z,5.43
2017-09-08T03:18:44.774Z,6.00
2017-09-08T03:21:12.350Z,6.07
2017-09-08T03:23:40.628Z,5.93
2017-09-08T03:26:08.183Z,5.83
2017-09-08T03:28:35.733Z,5.50
2017-09-08T03:31:03.271Z,6.00
2017-09-08T03:33:30.807Z,5.73
2017-09-08T03:35:58.334Z,6.40
2017-09-08T03:38:25.883Z,6.17
2017-09-08T03:40:53.412Z,5.63
2017-09-08T03:43:20.947Z,5.53
2017-09-08T03:45:48.485Z,5.60
2017-09-08T03:48:16.071Z,5.27
2017-09-08T03:50:43.604Z,5.50
2017-09-08T03:53:11.146Z,5.73
2017-09-08T03:55:38.687Z,5.60
2017-09-08T03:58:06.211Z,6.57
2017-09-08T04:00:33.778Z,5.40
2017-09-08T04:03:01.330Z,6.10
2017-09-08T04:05:29.282Z,5.50
2017-09-08T04:07:56.818Z,5.63
2017-09-08T04:10:24.379Z,4.87
2017-09-08T04:12:51.927Z,6.50
2017-09-08T04:15:19.483Z,5.80
2017-09-08T04:17:47.009Z,5.30
2017-09-08T04:20:14.570Z,5.43
2017-09-08T04:22:42.115Z,5.30
2017-09-08T04:25:09.650Z,6.20
2017-09-08T04:27:37.188Z,5.20
2017-09-08T04:30:04.718Z,5.80
2017-09-08T04:32:32.275Z,5.70
2017-09-08T04:34:59.795Z,4.73
2017-09-08T04:37:27.329Z,5.63
2017-09-08T04:39:54.874Z,5.20
2017-09-08T04:42:22.430Z,5.30
2017-09-08T04:44:49.961Z,6.20
2017-09-08T04:47:17.505Z,5.33
2017-09-08T04:49:45.048Z,5.07
2017-09-08T04:52:12.574Z,5.93
2017-09-08T04:54:40.583Z,5.53
2017-09-08T04:57:08.519Z,7.73
2017-09-08T04:59:36.065Z,5.63
2017-09-08T05:02:03.587Z,5.40
2017-09-08T05:04:31.153Z,5.50
2017-09-08T05:06:58.713Z,4.57
2017-09-08T05:09:26.272Z,5.23
2017-09-08T05:11:53.785Z,5.33
2017-09-08T05:14:21.341Z,5.10
2017-09-08T05:16:48.890Z,5.10
2017-09-08T05:19:16.405Z,4.80
2017-09-08T05:21:43.957Z,5.40
2017-09-08T05:24:12.132Z,5.27
2017-09-08T05:26:39.693Z,5.20
2017-09-08T05:29:07.240Z,4.60
2017-09-08T05:31:34.778Z,5.00
2017-09-08T05:34:02.355Z,4.83
2017-09-08T05:36:30.302Z,4.07
2017-09-08T05:38:57.817Z,4.80
2017-09-08T05:41:25.358Z,5.43
2017-09-08T05:43:52.900Z,4.50
2017-09-08T05:46:20.416Z,4.23
2017-09-08T05:48:47.978Z,4.33
2017-09-08T05:51:15.506Z,4.43
2017-09-08T05:53:43.049Z,4.30
2017-09-08T05:56:10.617Z,4.60
2017-09-08T05:58:38.189Z,4.30
2017-09-08T06:01:05.718Z,4.10
2017-09-08T06:03:33.256Z,4.43
2017-09-08T06:06:00.802Z,3.87
2017-09-08T06:08:28.336Z,4.53
2017-09-08T06:10:55.900Z,4.27
2017-09-08T06:13:23.433Z,4.20
2017-09-08T06:15:50.992Z,4.70
2017-09-08T06:18:18.530Z,4.20
2017-09-08T06:20:46.086Z,4.70
2017-09-08T06:23:13.623Z,4.90
2017-09-08T06:25:41.206Z,4.40
2017-09-08T06:28:08.724Z,4.33
2017-09-08T06:30:36.243Z,4.57
2017-09-08T06:33:03.779Z,4.30
2017-09-08T06:35:31.310Z,4.13
2017-09-08T06:37:58.859Z,5.07
2017-09-08T06:40:26.393Z,4.77
2017-09-08T06:42:53.929Z,5.53
2017-09-08T06:45:21.443Z,4.03
2017-09-08T06:47:48.991Z,4.60
2017-09-08T06:50:16.525Z,4.93
2017-09-08T06:52:44.071Z,4.77
2017-09-08T06:55:12.350Z,5.23
2017-09-08T06:57:39.882Z,4.23
2017-09-08T07:00:08.326Z,5.30
2017-09-08T07:02:35.863Z,4.40
2017-09-08T07:05:03.491Z,5.40
2017-09-08T07:07:31.016Z,3.50
2017-09-08T07:09:58.585Z,4.97
2017-09-08T07:12:26.134Z,4.30
2017-09-08T07:14:54.056Z,4.97
2017-09-08T07:17:21.605Z,4.47
2017-09-08T07:19:49.239Z,5.77
2017-09-08T07:22:16.812Z,4.97
2017-09-08T07:24:44.357Z,4.70
2017-09-08T07:27:13.074Z,4.93
2017-09-08T07:29:40.644Z,5.00
2017-09-08T07:32:08.220Z,4.70
2017-09-08T07:34:35.747Z,4.80
2017-09-08T07:37:03.274Z,4.53
2017-09-08T07:39:30.838Z,4.80
2017-09-08T07:41:58.380Z,4.50
2017-09-08T07:44:25.937Z,5.30
2017-09-08T07:46:53.518Z,5.03
2017-09-08T07:49:28.343Z,4.27
2017-09-08T07:51:55.975Z,5.07
2017-09-08T07:54:23.723Z,4.40
2017-09-08T07:56:51.244Z,5.10
2017-09-08T07:59:18.783Z,4.83
2017-09-08T08:01:46.340Z,4.30
2017-09-08T08:04:13.900Z,5.00
2017-09-08T08:06:42.468Z,4.97
2017-09-08T08:09:10.651Z,4.07
2017-09-08T08:11:38.196Z,4.10
2017-09-08T08:14:05.742Z,4.03
2017-09-08T08:16:33.316Z,4.57
2017-09-08T08:19:00.852Z,4.97
2017-09-08T08:21:28.398Z,4.67
2017-09-08T08:23:55.957Z,4.63
2017-09-08T08:26:23.494Z,4.77
2017-09-08T08:28:51.067Z,4.23
2017-09-08T08:31:18.631Z,4.50
2017-09-08T08:33:46.203Z,4.67
2017-09-08T08:36:13.732Z,4.20
2017-09-08T08:38:41.303Z,3.77
2017-09-08T08:41:08.871Z,4.50
2017-09-08T08:43:36.404Z,4.17
2017-09-08T08:46:03.958Z,4.23
2017-09-08T08:48:31.492Z,3.70
2017-09-08T08:50:59.032Z,4.50
2017-09-08T08:53:26.625Z,5.60
2017-09-08T08:55:54.179Z,4.50
2017-09-08T08:58:21.721Z,5.00
2017-09-08T09:00:49.279Z,4.30
2017-09-08T09:03:16.800Z,3.57
2017-09-08T09:05:44.334Z,5.20
2017-09-08T09:08:13.151Z,4.23
2017-09-08T09:10:42.022Z,4.10
2017-09-08T09:13:09.574Z,4.60
2017-09-08T09:15:37.116Z,4.10
2017-09-08T09:18:04.666Z,4.07
2017-09-08T09:20:32.200Z,3.30
2017-09-08T09:22:59.785Z,4.10
2017-09-08T09:25:27.330Z,4.13
2017-09-08T09:27:54.915Z,3.30
2017-09-08T09:30:22.455Z,2.97
2017-09-08T09:32:49.980Z,3.43
2017-09-08T09:35:17.516Z,3.73
2017-09-08T09:37:45.043Z,3.63
2017-09-08T09:40:12.595Z,3.27
2017-09-08T09:42:40.872Z,3.53
2017-09-08T09:45:08.437Z,4.10
2017-09-08T09:47:36.983Z,3.20
2017-09-08T09:50:04.495Z,3.13
2017-09-08T09:52:32.051Z,3.57
2017-09-08T09:54:59.589Z,3.77
2017-09-08T09:57:27.124Z,3.27
2017-09-08T09:59:54.647Z,3.87
2017-09-08T10:02:22.201Z,3.97
2017-09-08T10:04:49.738Z,3.37
2017-09-08T10:07:17.315Z,3.90
2017-09-08T10:09:44.850Z,3.20
2017-09-08T10:12:12.383Z,4.10
2017-09-08T10:14:39.939Z,3.70
2017-09-08T10:17:07.476Z,4.10
2017-09-08T10:19:35.072Z,3.90
2017-09-08T10:22:02.585Z,3.30
2017-09-08T10:24:30.120Z,3.60
2017-09-08T10:26:57.643Z,4.17
2017-09-08T10:29:25.191Z,3.47
2017-09-08T10:31:52.736Z,3.03
2017-09-08T10:34:20.274Z,3.23
2017-09-08T10:36:47.811Z,3.83
2017-09-08T10:39:15.341Z,3.90
2017-09-08T10:41:42.890Z,3.77
2017-09-08T10:44:10.806Z,3.93
2017-09-08T10:46:38.351Z,3.53
2017-09-08T10:49:05.882Z,3.10
2017-09-08T10:51:33.444Z,3.93
2017-09-08T10:54:00.998Z,4.03
2017-09-08T10:56:28.533Z,3.57
2017-09-08T10:58:56.115Z,3.23
2017-09-08T11:01:23.651Z,3.40
2017-09-08T11:03:51.220Z,3.20
2017-09-08T11:06:18.779Z,4.30
2017-09-08T11:08:46.435Z,3.37
2017-09-08T11:11:13.963Z,3.73
2017-09-08T11:13:42.706Z,3.27
2017-09-08T11:16:10.293Z,3.00
2017-09-08T11:18:37.819Z,3.97
2017-09-08T11:21:05.378Z,4.17
2017-09-08T11:23:32.912Z,2.90
2017-09-08T11:26:01.301Z,3.33
2017-09-08T11:28:28.903Z,3.60
2017-09-08T11:30:56.851Z,4.00
2017-09-08T11:33:30.067Z,5.00
2017-09-08T11:39:01.698Z,4.13
2017-09-08T11:41:29.277Z,4.30
2017-09-08T11:43:56.794Z,4.37
2017-09-08T11:46:24.343Z,5.03
2017-09-08T11:48:51.910Z,5.37
2017-09-08T11:51:19.430Z,5.17
2017-09-08T11:53:46.990Z,6.00
2017-09-08T11:56:14.520Z,5.83
2017-09-08T11:58:43.338Z,5.70
2017-09-08T12:01:11.267Z,6.03
2017-09-08T12:03:38.805Z,6.30
2017-09-08T12:06:06.339Z,7.13
2017-09-08T12:08:33.887Z,6.80
2017-09-08T12:11:01.444Z,7.13
2017-09-08T12:13:29.367Z,6.60
2017-09-08T12:15:56.950Z,7.30
2017-09-08T12:18:24.486Z,7.20
2017-09-08T12:20:52.031Z,6.87
2017-09-08T12:23:19.571Z,8.60
2017-09-08T12:25:47.102Z,7.30
2017-09-08T12:28:14.702Z,7.60
2017-09-08T12:30:42.887Z,7.57
2017-09-08T12:33:16.867Z,6.43
2017-09-08T12:35:44.422Z,7.20
2017-09-08T12:38:12.926Z,7.33
2017-09-08T12:40:41.579Z,6.13
2017-09-08T12:43:09.504Z,7.07
2017-09-08T12:45:37.055Z,7.23
2017-09-08T12:48:04.585Z,6.80
2017-09-08T12:50:32.149Z,7.03
2017-09-08T12:53:00.052Z,6.87
2017-09-08T12:55:27.619Z,6.83
2017-09-08T12:57:55.162Z,6.70
2017-09-08T13:00:22.689Z,7.50
2017-09-08T13:02:50.270Z,7.20
2017-09-08T13:05:17.802Z,8.07
2017-09-08T13:07:45.358Z,7.13
2017-09-08T13:10:12.888Z,7.40
2017-09-08T13:12:40.858Z,7.30
2017-09-08T13:15:08.421Z,7.40
2017-09-08T13:17:35.962Z,7.77
2017-09-08T13:20:03.624Z,7.10
2017-09-08T13:22:31.148Z,7.20
2017-09-08T13:24:58.697Z,6.43
2017-09-08T13:27:26.228Z,6.87
2017-09-08T13:29:53.764Z,7.00
2017-09-08T13:32:21.310Z,6.60
2017-09-08T13:34:48.873Z,6.90
2017-09-08T13:37:16.395Z,6.40
2017-09-08T13:39:43.912Z,6.10
2017-09-08T13:42:13.041Z,5.63
2017-09-08T13:44:41.162Z,5.93
2017-09-08T13:47:09.517Z,5.60
2017-09-08T13:49:37.027Z,5.37
2017-09-08T13:52:04.593Z,4.93
2017-09-08T13:54:32.163Z,5.13
2017-09-08T13:56:59.683Z,4.80
2017-09-08T13:59:27.242Z,5.40
2017-09-08T14:01:54.771Z,5.70
2017-09-08T14:04:22.343Z,5.00
2017-09-08T14:06:49.890Z,5.10
2017-09-08T14:09:17.429Z,4.97
2017-09-08T14:11:44.980Z,4.43
2017-09-08T14:14:12.555Z,4.20
2017-09-08T14:16:40.071Z,4.53
2017-09-08T14:19:07.637Z,3.50
2017-09-08T14:21:35.623Z,3.67
2017-09-08T14:24:03.154Z,3.87
2017-09-08T14:26:30.718Z,4.43
2017-09-08T14:28:58.289Z,4.07
2017-09-08T14:31:25.845Z,4.03
2017-09-08T14:33:53.402Z,4.30
2017-09-08T14:36:20.962Z,3.90
2017-09-08T14:38:48.503Z,4.27
2017-09-08T14:41:16.054Z,3.60
2017-09-08T14:43:43.594Z,3.90
2017-09-08T14:46:12.145Z,4.00
2017-09-08T14:48:39.698Z,4.30
2017-09-08T14:51:07.216Z,4.23
2017-09-08T14:53:34.847Z,4.53
2017-09-08T14:56:02.373Z,4.50
2017-09-08T14:58:29.961Z,4.23
2017-09-08T15:00:57.519Z,4.50
2017-09-08T15:03:25.037Z,4.13
2017-09-08T15:05:52.589Z,4.83
2017-09-08T15:08:20.105Z,4.60
2017-09-08T15:10:47.681Z,4.60
2017-09-08T15:13:15.365Z,4.43
2017-09-08T15:15:43.466Z,4.70
2017-09-08T15:18:12.568Z,4.90
2017-09-08T15:20:40.905Z,4.20
2017-09-08T15:23:09.137Z,4.40
2017-09-08T15:25:36.666Z,4.37
2017-09-08T15:28:04.216Z,3.60
2017-09-08T15:30:31.866Z,4.60
2017-09-08T15:32:59.431Z,4.13
2017-09-08T15:35:26.971Z,4.20
2017-09-08T15:37:54.698Z,4.10
2017-09-08T15:40:22.262Z,3.93
2017-09-08T15:42:49.825Z,4.23
2017-09-08T15:45:17.385Z,4.73
2017-09-08T15:47:45.023Z,4.80
2017-09-08T15:50:12.607Z,4.00
2017-09-08T15:52:40.134Z,3.80
2017-09-08T15:55:07.726Z,4.60
2017-09-08T15:57:35.257Z,4.83
2017-09-08T16:00:02.953Z,4.10
2017-09-08T16:02:30.760Z,4.00
2017-09-08T16:04:58.284Z,4.17
2017-09-08T16:07:25.819Z,3.90
2017-09-08T16:09:53.345Z,4.10
2017-09-08T16:12:21.756Z,4.20
2017-09-08T16:14:49.314Z,4.23
2017-09-08T16:17:18.063Z,4.20
2017-09-08T16:19:45.610Z,4.07
2017-09-08T16:22:13.144Z,4.23
2017-09-08T16:24:42.055Z,3.70
2017-09-08T16:27:09.635Z,4.47
2017-09-08T16:29:37.439Z,4.10
2017-09-08T16:32:04.985Z,4.20
2017-09-08T16:34:32.552Z,4.57
2017-09-08T16:37:00.102Z,4.40
2017-09-08T16:39:27.852Z,4.57
2017-09-08T16:41:55.423Z,5.13
2017-09-08T16:44:23.043Z,5.30
2017-09-08T16:46:50.586Z,6.27
2017-09-08T16:49:18.237Z,5.43
2017-09-08T16:51:45.794Z,4.80
2017-09-08T16:54:13.323Z,5.50
2017-09-08T16:56:41.566Z,6.00
2017-09-08T16:59:09.087Z,4.73
2017-09-08T17:01:36.648Z,5.27
2017-09-08T17:04:04.168Z,5.43
2017-09-08T17:06:31.763Z,5.77
2017-09-08T17:08:59.322Z,5.53
2017-09-08T17:11:26.868Z,6.00
2017-09-08T17:13:54.450Z,5.37
2017-09-08T17:16:22.423Z,5.30
2017-09-08T17:18:50.354Z,5.10
2017-09-08T17:21:17.874Z,4.13
2017-09-08T17:23:45.459Z,4.30
2017-09-08T17:26:12.991Z,4.53
2017-09-08T17:28:41.083Z,4.10
2017-09-08T17:31:08.626Z,4.33
2017-09-08T17:33:36.216Z,4.20
2017-09-08T17:36:03.744Z,4.30
2017-09-08T17:38:31.320Z,4.63
2017-09-08T17:40:58.978Z,4.80
2017-09-08T17:43:26.527Z,3.97
2017-09-08T17:45:54.107Z,4.23
2017-09-08T17:48:21.666Z,4.93
2017-09-08T17:50:49.192Z,4.60
2017-09-08T17:53:16.777Z,5.13
2017-09-08T17:55:44.346Z,5.53
2017-09-08T17:58:13.289Z,5.40
2017-09-08T18:00:41.878Z,5.03
2017-09-08T18:03:09.447Z,5.90
2017-09-08T18:05:36.980Z,6.87
2017-09-08T18:08:04.731Z,5.93
2017-09-08T18:10:32.313Z,6.87
2017-09-08T18:13:01.464Z,6.50
2017-09-08T18:15:28.991Z,6.87
2017-09-08T18:17:56.557Z,7.27
2017-09-08T18:20:24.153Z,7.50
2017-09-08T18:22:51.841Z,7.60
2017-09-08T18:25:19.410Z,6.53
2017-09-08T18:27:47.144Z,7.00
2017-09-08T18:30:14.969Z,7.00
2017-09-08T18:32:42.680Z,7.60
2017-09-08T18:35:11.045Z,7.40
2017-09-08T18:37:38.843Z,6.47
2017-09-08T18:40:06.600Z,6.70
2017-09-08T18:42:34.254Z,7.67
2017-09-08T18:45:01.831Z,7.40
2017-09-08T18:47:29.490Z,7.57
2017-09-08T18:49:57.067Z,7.43
2017-09-08T18:52:24.698Z,6.70
2017-09-08T18:54:52.234Z,6.90
2017-09-08T18:57:19.802Z,6.20
2017-09-08T18:59:47.351Z,6.70
2017-09-08T19:02:14.929Z,6.30
2017-09-08T19:04:43.258Z,6.37
2017-09-08T19:07:11.787Z,6.30
2017-09-08T19:09:42.760Z,5.83
2017-09-08T19:12:10.288Z,6.40
2017-09-08T19:14:42.489Z,6.60
2017-09-08T19:17:10.013Z,6.20
2017-09-08T19:19:37.571Z,5.73
2017-09-08T19:22:05.174Z,6.13
2017-09-08T19:24:32.751Z,6.00
2017-09-08T19:27:00.296Z,5.90
2017-09-08T19:29:27.878Z,5.90
2017-09-08T19:31:55.543Z,6.83
2017-09-08T19:34:23.127Z,7.20
2017-09-08T19:36:50.784Z,7.00
2017-09-08T19:39:18.339Z,6.87
2017-09-08T19:41:45.905Z,7.13
2017-09-08T19:44:13.457Z,7.13
2017-09-08T19:46:41.067Z,7.40
2017-09-08T19:49:08.651Z,8.77
2017-09-08T19:51:36.179Z,7.97
2017-09-08T19:54:04.242Z,8.80
2017-09-08T19:56:31.782Z,8.10
2017-09-08T19:58:59.351Z,9.00
2017-09-08T20:01:26.959Z,9.27
2017-09-08T20:03:54.510Z,7.10
2017-09-08T20:06:22.023Z,6.67
2017-09-08T20:08:49.624Z,7.17
2017-09-08T20:11:17.175Z,6.77
2017-09-08T20:13:44.855Z,7.57
2017-09-08T20:16:13.165Z,7.60
2017-09-08T20:18:41.531Z,7.30
2017-09-08T20:21:09.076Z,8.80
2017-09-08T20:23:36.638Z,8.67
2017-09-08T20:26:04.191Z,16.10
2017-09-08T20:28:31.837Z,7.80
2017-09-08T20:30:59.388Z,7.13
2017-09-08T20:33:26.950Z,8.10
2017-09-08T20:35:54.501Z,13.73
2017-09-08T20:38:22.070Z,10.47
2017-09-08T20:40:49.634Z,11.87
2017-09-08T20:43:17.162Z,8.43
2017-09-08T20:45:44.729Z,8.40
2017-09-08T20:48:13.025Z,8.60
2017-09-08T20:50:41.084Z,8.20
2017-09-08T20:53:08.629Z,8.80
2017-09-08T20:55:36.180Z,8.60
2017-09-08T20:58:03.734Z,9.93
2017-09-08T21:00:31.372Z,7.77
2017-09-08T21:02:58.891Z,7.60
2017-09-08T21:05:26.827Z,8.30
2017-09-08T21:07:54.349Z,8.73
2017-09-08T21:10:21.920Z,9.60
2017-09-08T21:12:49.469Z,9.90
2017-09-08T21:15:17.040Z,9.73
2017-09-08T21:17:44.560Z,9.00
2017-09-08T21:20:13.457Z,8.83
2017-09-08T21:22:41.133Z,9.13
2017-09-08T21:25:08.689Z,9.57
2017-09-08T21:27:36.438Z,9.20
2017-09-08T21:30:03.979Z,7.77
2017-09-08T21:32:31.762Z,8.73
2017-09-08T21:34:59.351Z,11.70
2017-09-08T21:37:26.942Z,10.40
2017-09-08T21:39:54.507Z,7.57
2017-09-08T21:42:22.045Z,5.23
2017-09-08T21:44:49.636Z,5.50
2017-09-08T21:47:17.171Z,5.87
2017-09-08T21:49:44.722Z,6.63
2017-09-08T21:52:12.773Z,6.60
2017-09-08T21:54:40.319Z,7.20
2017-09-08T21:57:07.850Z,6.60
2017-09-08T21:59:35.405Z,5.00
2017-09-08T22:02:02.931Z,5.73
2017-09-08T22:04:30.876Z,7.10
2017-09-08T22:06:58.417Z,7.17
2017-09-08T22:09:25.979Z,6.67
2017-09-08T22:11:53.513Z,8.47
2017-09-08T22:14:21.082Z,9.00
2017-09-08T22:16:48.618Z,8.70
2017-09-08T22:19:16.168Z,6.30
2017-09-08T22:21:43.723Z,6.50
2017-09-08T22:24:12.251Z,7.00
2017-09-08T22:26:40.009Z,7.00
2017-09-08T22:29:07.831Z,5.63
2017-09-08T22:31:35.386Z,4.30
2017-09-08T22:34:02.925Z,4.70
2017-09-08T22:36:30.476Z,5.50
2017-09-08T22:38:58.175Z,6.27
2017-09-08T22:41:25.726Z,5.70
2017-09-08T22:43:53.277Z,8.30
2017-09-08T22:46:20.848Z,10.90
2017-09-08T22:48:48.561Z,11.00
2017-09-08T22:51:16.111Z,11.70
2017-09-08T22:53:43.669Z,11.80
2017-09-08T22:56:12.138Z,10.10
2017-09-08T22:58:39.683Z,9.70
2017-09-08T23:01:08.322Z,9.50
2017-09-08T23:03:35.858Z,8.30
2017-09-08T23:06:03.500Z,9.03
2017-09-08T23:08:31.032Z,7.97
2017-09-08T23:10:58.583Z,9.57
2017-09-08T23:13:26.127Z,10.13
2017-09-08T23:15:54.074Z,9.73
2017-09-08T23:18:21.638Z,9.40
2017-09-08T23:20:49.210Z,9.97
2017-09-08T23:23:16.771Z,9.57
2017-09-08T23:25:44.731Z,10.30
2017-09-08T23:28:13.101Z,9.73
2017-09-08T23:30:40.719Z,11.77
2017-09-08T23:33:08.248Z,11.00
2017-09-08T23:35:35.814Z,10.40
2017-09-08T23:38:03.363Z,9.53
2017-09-08T23:40:30.927Z,9.40
2017-09-08T23:42:58.900Z,9.40
2017-09-08T23:45:26.887Z,9.07
2017-09-08T23:47:55.342Z,8.43
2017-09-08T23:50:22.946Z,9.37
2017-09-08T23:52:50.475Z,9.03
2017-09-08T23:55:18.042Z,8.37
2017-09-08T23:57:46.616Z,10.30
